Time;durP1;ratioP1;P1;durP2;ratioP2;P2;SDS_P1;SDS_P2;PMS_P1;PMS_P2;Temp;Humidity;BMP_temperature;BMP_pressure;BME280_temperature;BME280_humidity;BME280_pressure;Samples;Min_cycle;Max_cycle;Signal;HPM_P1;HPM_P2
2022/12/22 03:27:28;;;;;;;66.63;12.23;;;;;;;;;;5033786;28;20036;-62
2022/12/22 03:29:54;;;;;;;76.50;13.73;;;;;;;;;;5035472;28;20029;-62
2022/12/22 03:32:20;;;;;;;84.82;14.10;;;;;;;;;;5035248;28;20045;-63
2022/12/22 03:34:46;;;;;;;87.63;14.38;;;;;;;;;;5035293;28;20120;-62
2022/12/22 03:37:12;;;;;;;83.35;14.00;;;;;;;;;;5035472;28;20025;-62
2022/12/22 03:39:38;;;;;;;78.78;14.25;;;;;;;;;;5035290;28;20446;-62
2022/12/22 03:47:34;;;;;;;92.07;16.95;;;;;;;;;;5034844;28;20030;-62
2022/12/22 03:50:00;;;;;;;74.68;12.68;;;;;;;;;;5035251;28;20033;-62
2022/12/22 03:52:26;;;;;;;78.78;13.77;;;;;;;;;;5034896;28;20060;-62
2022/12/22 03:54:53;;;;;;;79.93;12.70;;;;;;;;;;5035010;28;20524;-62
2022/12/22 03:57:19;;;;;;;89.95;14.30;;;;;;;;;;5034836;28;20068;-62
2022/12/22 03:59:45;;;;;;;93.03;15.18;;;;;;;;;;5035095;28;20393;-62
2022/12/22 04:02:11;;;;;;;83.60;15.57;;;;;;;;;;5033587;28;20037;-62
2022/12/22 04:04:37;;;;;;;87.68;14.63;;;;;;;;;;5034235;28;20033;-62
2022/12/22 04:07:03;;;;;;;93.68;16.08;;;;;;;;;;5029732;28;20030;-62
2022/12/22 04:09:29;;;;;;;101.43;16.25;;;;;;;;;;5014896;28;20025;-62
2022/12/22 04:14:40;;;;;;;78.10;13.88;;;;;;;;;;5034356;28;20040;-62
2022/12/22 04:17:07;;;;;;;68.75;13.68;;;;;;;;;;5033953;28;20017;-62
2022/12/22 04:19:33;;;;;;;104.75;14.20;;;;;;;;;;5034458;28;20025;-62
2022/12/22 04:21:59;;;;;;;87.38;14.52;;;;;;;;;;5033184;28;20026;-62
2022/12/22 04:24:25;;;;;;;91.00;15.95;;;;;;;;;;5034517;28;20405;-62
2022/12/22 04:26:51;;;;;;;84.28;12.52;;;;;;;;;;5034916;28;20040;-62
2022/12/22 04:29:17;;;;;;;73.47;12.60;;;;;;;;;;5034453;28;20029;-62
2022/12/22 04:31:44;;;;;;;88.70;14.43;;;;;;;;;;5033756;28;20490;-62
2022/12/22 04:34:10;;;;;;;79.45;14.82;;;;;;;;;;5034383;28;20033;-62
2022/12/22 04:36:36;;;;;;;77.10;13.68;;;;;;;;;;5033817;28;20037;-62
2022/12/22 04:39:02;;;;;;;75.22;13.43;;;;;;;;;;5033641;28;20026;-62
2022/12/22 04:41:28;;;;;;;97.45;15.40;;;;;;;;;;5033552;28;20029;-62
2022/12/22 04:43:54;;;;;;;99.88;13.90;;;;;;;;;;5033052;28;20025;-62
2022/12/22 04:46:20;;;;;;;84.50;14.07;;;;;;;;;;5031911;28;20048;-62
2022/12/22 04:48:47;;;;;;;75.82;13.48;;;;;;;;;;5032955;28;20116;-62
2022/12/22 04:51:13;;;;;;;70.15;13.07;;;;;;;;;;5033001;28;20565;-62
2022/12/22 04:53:39;;;;;;;81.43;14.65;;;;;;;;;;5031719;28;20033;-62
2022/12/22 04:56:07;;;;;;;75.60;12.20;;;;;;;;;;5032916;28;20029;-62
2022/12/22 04:58:33;;;;;;;91.10;13.27;;;;;;;;;;5032681;28;20026;-62
2022/12/22 05:01:13;;;;;;;84.53;14.48;;;;;;;;;;5032496;28;20024;-62
2022/12/22 05:03:39;;;;;;;79.03;14.30;;;;;;;;;;5032400;28;20120;-62
2022/12/22 05:06:05;;;;;;;78.32;13.85;;;;;;;;;;5039304;28;20040;-63
2022/12/22 05:08:32;;;;;;;81.65;13.65;;;;;;;;;;5036290;28;20026;-62
2022/12/22 05:10:58;;;;;;;79.28;12.70;;;;;;;;;;5032306;28;20039;-63
2022/12/22 05:13:24;;;;;;;72.00;12.88;;;;;;;;;;5030318;28;20029;-63
2022/12/22 05:15:50;;;;;;;88.60;13.55;;;;;;;;;;5031494;28;20108;-63
2022/12/22 05:18:16;;;;;;;75.97;13.18;;;;;;;;;;5031559;28;20034;-63
2022/12/22 05:20:42;;;;;;;80.93;12.05;;;;;;;;;;5031930;28;20410;-63
2022/12/22 05:23:08;;;;;;;86.28;14.48;;;;;;;;;;5031666;28;20034;-62
2022/12/22 05:25:34;;;;;;;73.55;13.65;;;;;;;;;;5034446;28;20082;-62
2022/12/22 05:28:00;;;;;;;71.82;14.10;;;;;;;;;;5032345;28;20037;-63
2022/12/22 05:30:26;;;;;;;91.60;13.43;;;;;;;;;;5032168;28;20036;-62
2022/12/22 05:32:52;;;;;;;74.03;12.02;;;;;;;;;;5033104;28;20049;-62
2022/12/22 05:35:18;;;;;;;81.88;12.85;;;;;;;;;;5032436;28;20059;-62
2022/12/22 05:37:45;;;;;;;71.28;11.35;;;;;;;;;;5031297;28;20018;-62
2022/12/22 05:40:11;;;;;;;78.75;12.27;;;;;;;;;;5031266;28;20033;-62
2022/12/22 05:42:38;;;;;;;82.40;13.18;;;;;;;;;;5032167;28;20440;-63
2022/12/22 05:45:11;;;;;;;77.68;11.77;;;;;;;;;;5030755;28;20025;-63
2022/12/22 05:47:37;;;;;;;69.53;14.38;;;;;;;;;;5030390;28;20026;-62
2022/12/22 05:50:03;;;;;;;80.07;12.38;;;;;;;;;;5030863;28;20033;-62
2022/12/22 05:52:30;;;;;;;80.10;13.90;;;;;;;;;;5031516;28;20056;-62
2022/12/22 05:54:56;;;;;;;84.57;13.02;;;;;;;;;;5031220;28;20022;-63
2022/12/22 05:57:22;;;;;;;72.88;13.52;;;;;;;;;;5030849;28;20030;-63
2022/12/22 05:59:48;;;;;;;78.05;13.40;;;;;;;;;;5030779;28;20056;-63
2022/12/22 06:02:14;;;;;;;92.00;14.30;;;;;;;;;;5031182;28;20028;-62
2022/12/22 06:04:40;;;;;;;80.25;13.45;;;;;;;;;;5030933;28;20509;-62
2022/12/22 06:07:06;;;;;;;89.80;13.27;;;;;;;;;;5031196;28;20120;-62
2022/12/22 06:09:32;;;;;;;66.38;12.85;;;;;;;;;;5031233;28;20029;-62
2022/12/22 06:11:58;;;;;;;92.68;13.75;;;;;;;;;;5031189;28;20512;-63
2022/12/22 06:14:25;;;;;;;82.15;13.18;;;;;;;;;;5029487;28;20056;-62
2022/12/22 06:16:51;;;;;;;68.13;13.00;;;;;;;;;;5030843;28;20027;-62
2022/12/22 06:19:17;;;;;;;85.05;12.68;;;;;;;;;;5030960;28;20084;-63
2022/12/22 06:21:43;;;;;;;80.82;13.23;;;;;;;;;;5030660;28;20052;-63
2022/12/22 06:24:09;;;;;;;81.35;14.55;;;;;;;;;;5030903;28;20096;-62
2022/12/22 06:26:35;;;;;;;83.55;13.20;;;;;;;;;;5030525;28;20029;-62
2022/12/22 06:29:01;;;;;;;78.97;12.82;;;;;;;;;;5030738;28;20030;-63
2022/12/22 06:31:27;;;;;;;78.55;14.38;;;;;;;;;;5031027;28;20036;-63
2022/12/22 06:33:53;;;;;;;81.55;13.43;;;;;;;;;;5030699;28;20395;-62
2022/12/22 06:36:21;;;;;;;78.53;11.88;;;;;;;;;;5031284;28;20521;-62
2022/12/22 06:38:47;;;;;;;83.68;17.77;;;;;;;;;;5030594;28;20056;-63
2022/12/22 06:41:13;;;;;;;74.93;12.32;;;;;;;;;;5031666;28;20078;-63
2022/12/22 06:43:39;;;;;;;74.70;12.73;;;;;;;;;;5030987;28;20115;-62
2022/12/22 06:46:05;;;;;;;55.38;10.23;;;;;;;;;;5032172;28;20452;-63
2022/12/22 06:48:31;;;;;;;81.03;11.77;;;;;;;;;;5032369;28;20030;-62
2022/12/22 06:50:58;;;;;;;71.97;14.82;;;;;;;;;;5031904;28;20516;-62
2022/12/22 06:53:24;;;;;;;88.10;12.52;;;;;;;;;;5023988;28;20032;-62
2022/12/22 06:55:50;;;;;;;73.78;12.60;;;;;;;;;;5020356;28;20480;-63
2022/12/22 06:58:16;;;;;;;80.90;13.48;;;;;;;;;;5023314;28;20018;-62
2022/12/22 07:00:47;;;;;;;80.28;12.00;;;;;;;;;;5021455;28;20091;-62
2022/12/22 07:03:13;;;;;;;83.32;12.80;;;;;;;;;;5020027;28;20033;-63
2022/12/22 07:05:39;;;;;;;74.28;12.43;;;;;;;;;;5032492;28;20029;-62
2022/12/22 07:08:05;;;;;;;77.57;11.65;;;;;;;;;;5020998;28;20490;-62
2022/12/22 07:13:19;;;;;;;86.53;12.73;;;;;;;;;;5022617;28;20071;-62
2022/12/22 07:15:48;;;;;;;76.38;12.10;;;;;;;;;;5021243;28;20030;-62
2022/12/22 07:18:14;;;;;;;74.00;12.85;;;;;;;;;;5020478;28;20506;-63
2022/12/22 07:20:40;;;;;;;74.10;13.27;;;;;;;;;;5022402;28;20493;-62
2022/12/22 07:23:06;;;;;;;89.35;12.80;;;;;;;;;;5018591;28;20048;-63
2022/12/22 07:25:32;;;;;;;77.40;11.27;;;;;;;;;;5017997;28;20083;-63
2022/12/22 07:27:58;;;;;;;82.65;12.88;;;;;;;;;;5021706;28;20132;-62
2022/12/22 07:30:24;;;;;;;80.47;13.95;;;;;;;;;;5019367;28;20034;-62
2022/12/22 07:32:51;;;;;;;77.05;12.90;;;;;;;;;;5028385;28;20076;-63
2022/12/22 07:35:17;;;;;;;69.55;11.70;;;;;;;;;;5029336;28;20022;-62
2022/12/22 07:37:43;;;;;;;67.95;12.65;;;;;;;;;;5024949;28;20574;-66
2022/12/22 07:40:09;;;;;;;81.07;12.57;;;;;;;;;;5026928;28;20014;-63
2022/12/22 07:42:44;;;;;;;64.55;12.30;;;;;;;;;;5023992;28;20049;-62
2022/12/22 07:45:17;;;;;;;70.10;13.70;;;;;;;;;;5023561;28;20034;-63
2022/12/22 07:47:44;;;;;;;74.13;12.90;;;;;;;;;;5022567;28;20032;-62
2022/12/22 07:50:23;;;;;;;75.80;12.75;;;;;;;;;;5028554;28;20097;-62
2022/12/22 07:52:51;;;;;;;84.50;14.55;;;;;;;;;;5032844;28;20079;-62
2022/12/22 07:55:17;;;;;;;84.18;13.43;;;;;;;;;;5033539;28;20105;-63
2022/12/22 07:57:43;;;;;;;87.82;12.73;;;;;;;;;;5033548;28;20041;-62
2022/12/22 08:00:10;;;;;;;78.32;12.93;;;;;;;;;;5033362;28;20017;-62
2022/12/22 08:02:40;;;;;;;68.65;12.05;;;;;;;;;;5032034;28;20486;-63
2022/12/22 08:05:07;;;;;;;63.75;12.43;;;;;;;;;;5033778;28;20108;-63
2022/12/22 08:07:33;;;;;;;66.90;12.13;;;;;;;;;;5033214;28;20478;-62
2022/12/22 08:09:59;;;;;;;73.75;11.88;;;;;;;;;;5031277;28;20025;-62
2022/12/22 08:12:25;;;;;;;58.67;10.48;;;;;;;;;;5030775;28;20032;-63
2022/12/22 08:14:52;;;;;;;66.00;10.23;;;;;;;;;;5029868;28;20439;-63
2022/12/22 08:17:18;;;;;;;67.43;11.50;;;;;;;;;;5030762;28;20036;-63
2022/12/22 08:19:44;;;;;;;63.67;9.65;;;;;;;;;;5032249;28;20485;-63
2022/12/22 08:22:11;;;;;;;50.28;9.50;;;;;;;;;;5031852;28;20076;-62
2022/12/22 08:24:37;;;;;;;64.35;11.10;;;;;;;;;;5031841;28;20064;-63
2022/12/22 08:27:05;;;;;;;65.68;10.30;;;;;;;;;;5020949;28;20430;-63
2022/12/22 08:29:42;;;;;;;52.83;9.63;;;;;;;;;;5019115;28;20034;-63
2022/12/22 08:32:09;;;;;;;60.65;9.55;;;;;;;;;;5027162;28;20050;-63
2022/12/22 08:34:35;;;;;;;62.70;10.80;;;;;;;;;;5024790;28;20070;-62
2022/12/22 08:37:02;;;;;;;65.03;11.30;;;;;;;;;;5020460;28;20038;-63
2022/12/22 08:39:31;;;;;;;55.05;11.20;;;;;;;;;;5024478;28;20485;-63
2022/12/22 08:41:57;;;;;;;60.50;9.75;;;;;;;;;;5021172;28;20068;-62
2022/12/22 08:44:28;;;;;;;64.70;10.60;;;;;;;;;;5023298;28;20551;-63
2022/12/22 08:46:55;;;;;;;70.97;12.95;;;;;;;;;;5022843;28;20033;-63
2022/12/22 08:49:21;;;;;;;67.13;10.85;;;;;;;;;;5023581;28;20032;-62
2022/12/22 08:51:47;;;;;;;52.50;11.25;;;;;;;;;;5039081;28;20497;-63
2022/12/22 08:54:14;;;;;;;62.38;10.57;;;;;;;;;;5024264;28;20501;-63
2022/12/22 08:56:41;;;;;;;62.55;10.50;;;;;;;;;;5026560;28;20053;-62
2022/12/22 08:59:08;;;;;;;62.03;10.60;;;;;;;;;;5022855;28;20017;-63
2022/12/22 09:01:38;;;;;;;53.70;10.57;;;;;;;;;;5025315;28;20030;-63
2022/12/22 09:04:05;;;;;;;55.15;9.98;;;;;;;;;;5021176;28;20054;-62
2022/12/22 09:06:32;;;;;;;60.75;10.23;;;;;;;;;;5020135;28;20060;-62
2022/12/22 09:08:59;;;;;;;58.90;10.07;;;;;;;;;;5022961;28;20037;-62
2022/12/22 09:11:25;;;;;;;59.20;10.13;;;;;;;;;;5024986;28;20029;-62
2022/12/22 09:13:52;;;;;;;58.25;10.27;;;;;;;;;;5022515;28;20022;-62
2022/12/22 09:16:19;;;;;;;63.50;10.32;;;;;;;;;;5024754;28;20123;-63
2022/12/22 09:18:45;;;;;;;55.08;10.43;;;;;;;;;;5020445;28;20102;-62
2022/12/22 09:21:11;;;;;;;65.60;10.38;;;;;;;;;;5020005;28;20021;-63
2022/12/22 09:23:37;;;;;;;56.33;9.40;;;;;;;;;;5031782;28;20036;-62
2022/12/22 09:26:11;;;;;;;53.90;11.00;;;;;;;;;;5024557;28;20029;-63
2022/12/22 09:28:37;;;;;;;74.47;10.88;;;;;;;;;;5022094;28;20073;-62
2022/12/22 09:31:04;;;;;;;57.15;10.40;;;;;;;;;;5021681;28;20034;-63
2022/12/22 09:33:31;;;;;;;62.53;9.98;;;;;;;;;;5022578;28;20041;-63
2022/12/22 09:35:57;;;;;;;71.50;9.90;;;;;;;;;;5020700;28;20026;-62
2022/12/22 09:38:35;;;;;;;58.85;10.65;;;;;;;;;;5024342;28;20108;-62
2022/12/22 09:41:30;;;;;;;65.80;11.00;;;;;;;;;;5025399;28;20025;-62
2022/12/22 09:43:56;;;;;;;58.53;9.60;;;;;;;;;;5023054;28;20092;-62
2022/12/22 09:46:25;;;;;;;61.35;10.57;;;;;;;;;;5021066;28;20490;-62
2022/12/22 09:48:51;;;;;;;71.72;11.05;;;;;;;;;;5021956;28;20037;-62
2022/12/22 09:51:18;;;;;;;64.75;11.98;;;;;;;;;;5024276;28;20060;-62
2022/12/22 09:53:50;;;;;;;67.40;10.07;;;;;;;;;;5022835;28;20033;-62
2022/12/22 09:56:17;;;;;;;61.88;11.20;;;;;;;;;;5026258;28;20401;-62
2022/12/22 09:58:44;;;;;;;58.42;10.73;;;;;;;;;;5026382;28;20025;-62
2022/12/22 10:01:21;;;;;;;75.68;11.40;;;;;;;;;;5018283;28;20120;-63
2022/12/22 10:03:54;;;;;;;72.18;9.68;;;;;;;;;;5021456;28;20026;-62
2022/12/22 10:06:24;;;;;;;57.42;9.05;;;;;;;;;;5019894;28;20026;-63
2022/12/22 10:08:53;;;;;;;66.88;11.73;;;;;;;;;;5021079;28;20112;-63
2022/12/22 10:11:19;;;;;;;68.53;9.75;;;;;;;;;;5029543;28;20039;-63
2022/12/22 10:13:45;;;;;;;55.58;9.55;;;;;;;;;;5022600;28;20033;-63
2022/12/22 10:16:22;;;;;;;59.10;10.30;;;;;;;;;;5026517;28;20017;-63
2022/12/22 10:18:58;;;;;;;54.22;9.80;;;;;;;;;;5030598;28;20117;-63
2022/12/22 10:21:25;;;;;;;54.97;9.75;;;;;;;;;;5031310;28;20417;-63
2022/12/22 10:23:51;;;;;;;62.28;10.20;;;;;;;;;;5030042;28;20033;-62
2022/12/22 10:26:21;;;;;;;53.70;10.25;;;;;;;;;;5030759;28;20112;-62
2022/12/22 10:28:49;;;;;;;49.05;9.13;;;;;;;;;;5030270;28;20116;-62
2022/12/22 10:31:15;;;;;;;48.88;9.00;;;;;;;;;;5030832;28;20523;-62
2022/12/22 10:33:42;;;;;;;52.67;9.85;;;;;;;;;;5029461;28;20041;-62
2022/12/22 10:36:09;;;;;;;53.65;10.25;;;;;;;;;;5027025;28;20038;-62
2022/12/22 10:38:36;;;;;;;53.42;10.60;;;;;;;;;;5029400;28;20025;-62
2022/12/22 10:41:04;;;;;;;38.47;7.97;;;;;;;;;;5029170;28;20032;-63
2022/12/22 10:43:32;;;;;;;42.22;8.93;;;;;;;;;;5029819;28;20076;-63
2022/12/22 10:45:58;;;;;;;42.78;10.07;;;;;;;;;;5024697;28;20025;-63
2022/12/22 10:48:25;;;;;;;39.45;9.63;;;;;;;;;;5029905;28;20110;-62
2022/12/22 10:50:52;;;;;;;51.42;11.45;;;;;;;;;;5027498;28;20041;-62
2022/12/22 10:53:18;;;;;;;45.53;12.55;;;;;;;;;;5021481;28;20033;-62
2022/12/22 10:55:44;;;;;;;44.30;13.27;;;;;;;;;;5025132;28;20082;-62
2022/12/22 10:58:11;;;;;;;42.33;12.30;;;;;;;;;;5025264;28;20502;-62
2022/12/22 11:00:38;;;;;;;41.55;10.95;;;;;;;;;;5024772;28;20482;-62
2022/12/22 11:03:06;;;;;;;36.95;10.15;;;;;;;;;;5025951;28;20037;-62
2022/12/22 11:05:33;;;;;;;25.45;6.75;;;;;;;;;;5021453;28;20022;-63
2022/12/22 11:08:19;;;;;;;24.42;5.82;;;;;;;;;;5019491;28;20029;-63
2022/12/22 11:10:51;;;;;;;18.85;3.25;;;;;;;;;;5029116;28;20025;-62
2022/12/22 11:13:17;;;;;;;21.23;3.42;;;;;;;;;;5033425;28;20075;-62
2022/12/22 11:15:46;;;;;;;14.27;3.15;;;;;;;;;;5029947;28;21191;-63
2022/12/22 11:18:18;;;;;;;13.82;3.08;;;;;;;;;;5023184;28;20448;-62
2022/12/22 11:20:51;;;;;;;14.52;4.07;;;;;;;;;;5026061;28;20385;-62
2022/12/22 11:23:35;;;;;;;23.38;6.78;;;;;;;;;;5018173;28;20083;-63
2022/12/22 11:26:15;;;;;;;24.58;8.07;;;;;;;;;;5023646;28;20030;-62
2022/12/22 11:28:48;;;;;;;25.58;8.02;;;;;;;;;;5019844;28;20056;-62
2022/12/22 11:31:23;;;;;;;22.08;7.22;;;;;;;;;;5019021;28;20506;-62
2022/12/22 11:34:04;;;;;;;16.98;5.82;;;;;;;;;;5017018;28;20120;-62
2022/12/22 11:36:30;;;;;;;7.65;3.33;;;;;;;;;;5018155;28;20018;-62
2022/12/22 11:39:00;;;;;;;8.07;3.08;;;;;;;;;;5016419;28;20030;-62
2022/12/22 11:41:44;;;;;;;6.45;2.22;;;;;;;;;;5020074;28;20026;-62
2022/12/22 11:44:10;;;;;;;2.28;1.00;;;;;;;;;;5019207;28;20413;-62
2022/12/22 11:46:49;;;;;;;2.38;0.95;;;;;;;;;;5013908;28;20049;-62
2022/12/22 11:49:21;;;;;;;2.50;0.93;;;;;;;;;;5018723;28;20036;-62
2022/12/22 11:51:56;;;;;;;1.87;0.70;;;;;;;;;;5018826;28;20482;-62
2022/12/22 11:54:31;;;;;;;6.68;1.00;;;;;;;;;;5023348;28;20029;-62
2022/12/22 11:57:16;;;;;;;1.95;0.88;;;;;;;;;;5017117;28;20025;-62
2022/12/22 11:59:42;;;;;;;1.35;0.80;;;;;;;;;;5016563;28;20049;-63
2022/12/22 12:02:44;;;;;;;1.70;0.90;;;;;;;;;;5017435;28;20037;-62
2022/12/22 12:05:28;;;;;;;3.05;0.60;;;;;;;;;;5029413;28;20065;-62
2022/12/22 12:08:00;;;;;;;1.75;1.10;;;;;;;;;;5027041;28;20417;-63
2022/12/22 12:10:28;;;;;;;2.13;0.98;;;;;;;;;;5029274;28;20080;-62
2022/12/22 12:13:12;;;;;;;3.55;0.80;;;;;;;;;;5028957;28;20042;-62
2022/12/22 12:15:39;;;;;;;2.22;0.55;;;;;;;;;;5027130;28;20879;-62
2022/12/22 12:18:07;;;;;;;1.35;0.70;;;;;;;;;;5022352;28;20119;-63
2022/12/22 12:20:39;;;;;;;2.47;0.85;;;;;;;;;;5031338;28;20042;-62
2022/12/22 12:23:25;;;;;;;2.67;0.57;;;;;;;;;;5034331;28;20128;-62
2022/12/22 12:25:56;;;;;;;4.50;0.70;;;;;;;;;;5025535;28;20787;-62
2022/12/22 12:28:28;;;;;;;2.30;0.82;;;;;;;;;;5030170;28;20037;-62
2022/12/22 12:30:56;;;;;;;1.87;0.80;;;;;;;;;;5029772;28;20033;-62
2022/12/22 12:33:25;;;;;;;5.30;1.77;;;;;;;;;;5028201;28;20300;-62
2022/12/22 12:35:56;;;;;;;2.53;1.23;;;;;;;;;;5027490;28;20115;-62
2022/12/22 12:38:41;;;;;;;2.97;0.93;;;;;;;;;;5026470;28;20592;-62
2022/12/22 12:41:17;;;;;;;2.88;0.75;;;;;;;;;;5026789;28;21025;-63
2022/12/22 12:43:44;;;;;;;4.80;1.02;;;;;;;;;;5018379;28;20517;-62
2022/12/22 12:46:49;;;;;;;4.43;1.35;;;;;;;;;;5031262;28;20045;-62
2022/12/22 12:49:40;;;;;;;6.82;1.30;;;;;;;;;;5049723;28;20104;-63
2022/12/22 12:52:06;;;;;;;5.45;1.13;;;;;;;;;;5047672;28;20025;-62
2022/12/22 12:54:33;;;;;;;5.93;1.50;;;;;;;;;;5050901;28;20033;-62
2022/12/22 12:57:00;;;;;;;14.98;1.88;;;;;;;;;;5051698;28;20563;-62
2022/12/22 12:59:41;;;;;;;10.13;2.40;;;;;;;;;;5049630;28;20021;-62
2022/12/22 13:02:26;;;;;;;13.32;2.50;;;;;;;;;;5049197;28;20079;-62
2022/12/22 13:05:01;;;;;;;9.38;2.35;;;;;;;;;;5050056;28;20083;-62
2022/12/22 13:07:46;;;;;;;15.10;2.75;;;;;;;;;;5050215;28;20064;-63
2022/12/22 13:10:19;;;;;;;8.70;2.80;;;;;;;;;;5050017;28;20047;-63
2022/12/22 13:12:53;;;;;;;12.93;2.70;;;;;;;;;;5051647;28;20152;-62
2022/12/22 13:15:29;;;;;;;7.22;2.05;;;;;;;;;;5048299;28;20036;-62
2022/12/22 13:17:56;;;;;;;11.55;2.58;;;;;;;;;;5053052;28;20444;-62
2022/12/22 13:20:27;;;;;;;13.57;2.00;;;;;;;;;;5033908;28;20034;-62
2022/12/22 13:22:55;;;;;;;6.88;2.40;;;;;;;;;;5031198;28;20478;-63
2022/12/22 13:25:22;;;;;;;13.90;2.83;;;;;;;;;;5028008;28;20055;-62
2022/12/22 13:27:49;;;;;;;13.18;3.80;;;;;;;;;;5027362;28;20510;-62
2022/12/22 13:30:16;;;;;;;15.00;2.63;;;;;;;;;;5024969;28;20018;-63
2022/12/22 13:32:44;;;;;;;11.00;3.13;;;;;;;;;;5027398;28;20038;-62
2022/12/22 13:35:29;;;;;;;19.05;3.90;;;;;;;;;;5028824;28;20037;-63
2022/12/22 13:37:56;;;;;;;12.15;3.30;;;;;;;;;;5027074;28;20032;-63
2022/12/22 13:40:29;;;;;;;17.02;4.25;;;;;;;;;;5030157;28;20019;-63
2022/12/22 13:43:12;;;;;;;17.95;3.00;;;;;;;;;;5015665;28;20509;-63
2022/12/22 13:45:38;;;;;;;;;;;;;;;;;;5025132;28;20037;-63
2022/12/22 13:48:08;;;;;;;8.65;2.67;;;;;;;;;;5029340;28;19905;-62
2022/12/22 13:50:36;;;;;;;23.63;4.90;;;;;;;;;;5028280;28;20115;-63
2022/12/22 13:53:03;;;;;;;18.38;4.28;;;;;;;;;;5026800;28;20136;-63
2022/12/22 13:55:31;;;;;;;25.92;5.07;;;;;;;;;;5024643;28;20032;-63
2022/12/22 13:58:01;;;;;;;28.27;4.35;;;;;;;;;;5027382;28;20044;-63
2022/12/22 14:00:28;;;;;;;23.50;4.20;;;;;;;;;;5027500;28;20081;-63
2022/12/22 14:02:54;;;;;;;25.65;5.00;;;;;;;;;;5025265;28;20025;-63
2022/12/22 14:05:20;;;;;;;17.77;4.97;;;;;;;;;;5023454;28;20025;-62
2022/12/22 14:08:00;;;;;;;24.13;5.05;;;;;;;;;;5026158;28;20385;-62
2022/12/22 14:10:33;;;;;;;23.50;5.30;;;;;;;;;;5027016;28;20036;-62
2022/12/22 14:13:01;;;;;;;23.17;5.10;;;;;;;;;;5027901;28;20040;-62
2022/12/22 14:15:27;;;;;;;24.73;6.10;;;;;;;;;;5025584;28;20028;-62
2022/12/22 14:17:53;;;;;;;17.20;3.85;;;;;;;;;;5029424;28;20017;-62
2022/12/22 14:20:23;;;;;;;27.60;4.82;;;;;;;;;;5026232;28;20100;-62
2022/12/22 14:22:55;;;;;;;22.52;4.45;;;;;;;;;;5028949;28;20021;-62
2022/12/22 14:25:23;;;;;;;21.30;4.78;;;;;;;;;;5023696;28;20033;-62
2022/12/22 14:27:53;;;;;;;21.83;5.07;;;;;;;;;;5028939;28;20014;-62
2022/12/22 14:30:45;;;;;;;29.45;6.10;;;;;;;;;;5028885;28;20037;-63
2022/12/22 14:33:26;;;;;;;21.95;5.00;;;;;;;;;;5029118;28;20111;-62
2022/12/22 14:36:05;;;;;;;22.88;4.97;;;;;;;;;;5026915;28;20504;-62
2022/12/22 14:38:37;;;;;;;20.90;5.90;;;;;;;;;;5027636;28;20386;-62
2022/12/22 14:41:09;;;;;;;19.45;4.22;;;;;;;;;;5028661;28;20033;-62
2022/12/22 14:43:35;;;;;;;21.67;4.82;;;;;;;;;;5029061;28;20045;-62
2022/12/22 14:46:04;;;;;;;19.30;4.15;;;;;;;;;;5028690;28;20029;-63
2022/12/22 14:48:32;;;;;;;17.63;3.30;;;;;;;;;;5026364;28;20038;-63
2022/12/22 14:50:59;;;;;;;20.00;4.00;;;;;;;;;;5026247;28;20029;-63
2022/12/22 14:53:27;;;;;;;21.23;3.83;;;;;;;;;;5020832;28;20039;-65
2022/12/22 14:55:53;;;;;;;16.70;3.60;;;;;;;;;;5020486;28;20036;-63
2022/12/22 14:58:22;;;;;;;17.30;3.13;;;;;;;;;;5011870;28;20029;-63
2022/12/22 15:01:08;;;;;;;14.55;3.30;;;;;;;;;;5017449;28;20017;-63
2022/12/22 15:03:35;;;;;;;11.40;2.88;;;;;;;;;;5021754;28;20438;-62
2022/12/22 15:06:20;;;;;;;10.40;3.47;;;;;;;;;;5021450;28;20034;-63
2022/12/22 15:08:46;;;;;;;13.48;2.80;;;;;;;;;;5027367;28;20547;-63
2022/12/22 15:11:17;;;;;;;13.75;2.85;;;;;;;;;;5028664;28;20478;-62
2022/12/22 15:13:44;;;;;;;7.68;2.22;;;;;;;;;;5025212;28;20509;-62
2022/12/22 15:16:28;;;;;;;8.48;2.42;;;;;;;;;;5027239;28;20489;-62
2022/12/22 15:18:54;;;;;;;11.93;3.08;;;;;;;;;;5025281;28;20034;-62
2022/12/22 15:21:21;;;;;;;14.93;3.00;;;;;;;;;;5015912;28;20032;-62
2022/12/22 15:23:48;;;;;;;16.15;3.28;;;;;;;;;;5020826;28;20032;-62
2022/12/22 15:26:14;;;;;;;10.40;2.40;;;;;;;;;;5016237;28;20029;-62
2022/12/22 15:28:40;;;;;;;12.00;3.40;;;;;;;;;;5020478;28;20429;-62
2022/12/22 15:31:12;;;;;;;22.02;4.85;;;;;;;;;;5025450;28;20022;-62
2022/12/22 15:33:39;;;;;;;15.43;3.25;;;;;;;;;;5020468;28;20041;-62
2022/12/22 15:36:05;;;;;;;22.17;3.58;;;;;;;;;;5023605;28;20041;-63
2022/12/22 15:38:32;;;;;;;23.17;3.70;;;;;;;;;;5028845;28;20028;-62
2022/12/22 15:40:58;;;;;;;16.65;3.50;;;;;;;;;;5018495;28;20469;-62
2022/12/22 15:43:24;;;;;;;18.65;3.60;;;;;;;;;;5019434;28;20040;-62
2022/12/22 15:45:50;;;;;;;23.83;4.53;;;;;;;;;;5027552;28;20366;-62
2022/12/22 15:48:20;;;;;;;26.02;5.30;;;;;;;;;;5016387;28;20033;-62
2022/12/22 15:50:46;;;;;;;28.13;4.65;;;;;;;;;;5028686;28;20037;-62
2022/12/22 15:53:15;;;;;;;24.30;4.35;;;;;;;;;;5027383;28;20022;-62
2022/12/22 15:55:42;;;;;;;23.48;4.88;;;;;;;;;;5024133;28;20032;-63
2022/12/22 15:58:10;;;;;;;22.25;4.88;;;;;;;;;;5021636;28;20033;-62
2022/12/22 16:00:36;;;;;;;27.48;5.68;;;;;;;;;;5032299;28;20394;-62
2022/12/22 16:03:03;;;;;;;22.73;4.70;;;;;;;;;;5026685;28;20478;-62
2022/12/22 16:05:29;;;;;;;24.33;5.03;;;;;;;;;;5019967;28;20018;-62
2022/12/22 16:07:55;;;;;;;29.38;5.25;;;;;;;;;;5012394;28;20030;-62
2022/12/22 16:10:27;;;;;;;19.17;4.65;;;;;;;;;;5013609;28;20030;-63
2022/12/22 16:12:59;;;;;;;34.10;5.05;;;;;;;;;;5012308;28;20064;-62
2022/12/22 16:15:31;;;;;;;27.40;6.40;;;;;;;;;;5016630;28;22130;-62
2022/12/22 16:17:58;;;;;;;24.20;5.18;;;;;;;;;;5016822;28;20538;-62
2022/12/22 16:20:26;;;;;;;19.23;5.30;;;;;;;;;;5016762;28;20025;-62
2022/12/22 16:22:52;;;;;;;20.13;4.70;;;;;;;;;;5013237;28;20117;-62
2022/12/22 16:25:45;;;;;;;22.77;3.30;;;;;;;;;;5017003;28;20053;-62
2022/12/22 16:28:22;;;;;;;20.40;4.07;;;;;;;;;;5014792;28;20461;-62
2022/12/22 16:30:52;;;;;;;25.10;4.45;;;;;;;;;;5014436;28;20034;-62
2022/12/22 16:39:06;;;;;;;17.80;3.97;;;;;;;;;;5030673;28;20033;-62
2022/12/22 16:41:32;;;;;;;15.75;3.72;;;;;;;;;;5001772;28;20450;-63
2022/12/22 16:44:23;;;;;;;15.00;2.83;;;;;;;;;;5029805;28;20052;-62
2022/12/22 16:46:50;;;;;;;14.23;3.13;;;;;;;;;;5023679;28;20026;-63
2022/12/22 16:49:17;;;;;;;16.50;3.45;;;;;;;;;;5024077;28;20556;-62
2022/12/22 16:51:49;;;;;;;12.52;3.17;;;;;;;;;;5020835;28;20109;-62
2022/12/22 16:54:15;;;;;;;14.52;3.17;;;;;;;;;;5023269;28;20489;-62
2022/12/22 16:56:42;;;;;;;16.73;4.57;;;;;;;;;;5023994;28;20025;-63
2022/12/22 16:59:08;;;;;;;37.83;15.40;;;;;;;;;;5022531;28;20926;-62
2022/12/22 17:01:38;;;;;;;27.35;5.10;;;;;;;;;;5022953;28;20013;-62
2022/12/22 17:04:07;;;;;;;17.42;3.85;;;;;;;;;;5023067;28;20117;-62
2022/12/22 17:06:34;;;;;;;21.05;4.50;;;;;;;;;;5025630;28;20030;-62
2022/12/22 17:09:01;;;;;;;16.38;4.47;;;;;;;;;;5024058;28;20064;-62
2022/12/22 17:11:29;;;;;;;18.05;4.30;;;;;;;;;;5021146;28;20022;-63
2022/12/22 17:14:00;;;;;;;20.38;4.43;;;;;;;;;;5022315;28;20044;-63
2022/12/22 17:16:26;;;;;;;18.63;4.30;;;;;;;;;;5019088;28;20064;-63
2022/12/22 17:18:52;;;;;;;17.27;3.38;;;;;;;;;;5018683;28;20109;-63
2022/12/22 17:21:20;;;;;;;16.90;4.30;;;;;;;;;;5021688;28;20558;-69
2022/12/22 17:24:02;;;;;;;18.00;4.53;;;;;;;;;;5020904;28;20474;-64
2022/12/22 17:26:28;;;;;;;24.00;4.18;;;;;;;;;;5022114;28;20491;-64
2022/12/22 17:28:55;;;;;;;24.83;5.70;;;;;;;;;;5023851;28;20033;-65
2022/12/22 17:31:22;;;;;;;27.27;5.55;;;;;;;;;;5025393;28;21429;-64
2022/12/22 17:33:48;;;;;;;18.70;6.13;;;;;;;;;;5022576;28;20152;-65
2022/12/22 17:36:33;;;;;;;17.55;4.35;;;;;;;;;;5023085;28;20071;-65
2022/12/22 17:38:59;;;;;;;18.45;4.30;;;;;;;;;;5019889;28;20053;-65
2022/12/22 17:41:25;;;;;;;20.92;4.55;;;;;;;;;;5022721;28;20459;-65
2022/12/22 17:43:51;;;;;;;22.30;3.53;;;;;;;;;;5020372;28;20052;-65
2022/12/22 17:46:19;;;;;;;11.80;3.40;;;;;;;;;;5023697;28;20033;-65
2022/12/22 17:48:46;;;;;;;18.83;3.78;;;;;;;;;;5023328;28;20036;-65
2022/12/22 17:51:15;;;;;;;14.75;3.40;;;;;;;;;;5024613;28;20021;-64
2022/12/22 17:53:41;;;;;;;18.73;3.60;;;;;;;;;;5023914;28;20033;-65
2022/12/22 17:56:10;;;;;;;20.73;3.67;;;;;;;;;;5021421;28;20051;-65
2022/12/22 17:58:36;;;;;;;17.25;4.00;;;;;;;;;;5025833;28;20043;-65
2022/12/22 18:01:02;;;;;;;22.17;3.75;;;;;;;;;;5024204;28;20029;-65
2022/12/22 18:03:28;;;;;;;18.20;3.58;;;;;;;;;;5024514;28;20564;-65
2022/12/22 18:05:54;;;;;;;16.42;3.65;;;;;;;;;;5023287;28;20101;-65
2022/12/22 18:08:20;;;;;;;19.40;4.85;;;;;;;;;;5026742;28;20562;-64
2022/12/22 18:10:47;;;;;;;24.23;5.32;;;;;;;;;;5013350;28;20096;-65
2022/12/22 18:13:15;;;;;;;16.05;4.22;;;;;;;;;;5023260;28;20621;-65
2022/12/22 18:15:41;;;;;;;21.70;5.05;;;;;;;;;;5023276;28;20031;-65
2022/12/22 18:18:12;;;;;;;29.35;5.35;;;;;;;;;;5021774;28;20029;-65
2022/12/22 18:20:39;;;;;;;20.20;4.05;;;;;;;;;;5024242;28;20056;-65